Time;durP1;ratioP1;P1;durP2;ratioP2;P2;SDS_P1;SDS_P2;PMS_P1;PMS_P2;Temp;Humidity;BMP_temperature;BMP_pressure;BME280_temperature;BME280_humidity;BME280_pressure;Samples;Min_cycle;Max_cycle;Signal;HPM_P1;HPM_P2
2023/07/25 00:01:26;;;;;;;8.35;3.28;;;;;;;19.68;96.21;100008.41;5104427;28;20048;-66
2023/07/25 00:03:54;;;;;;;6.22;2.88;;;;;;;19.87;94.54;100014.50;5112243;28;20054;-65
2023/07/25 00:06:21;;;;;;;5.60;2.70;;;;;;;19.52;96.50;100024.69;5092585;28;20056;-64
2023/07/25 00:08:48;;;;;;;7.95;3.50;;;;;;;19.35;98.60;100023.38;5093368;28;20538;-65
2023/07/25 00:11:16;;;;;;;8.50;3.20;;;;;;;19.30;100.00;100022.91;5109507;28;20446;-65
2023/07/25 00:13:43;;;;;;;5.95;2.88;;;;;;;19.31;100.00;100030.13;5113452;28;20051;-64
2023/07/25 00:16:10;;;;;;;5.70;3.00;;;;;;;19.30;100.00;100029.31;5117884;28;20051;-65
2023/07/25 00:18:38;;;;;;;5.57;2.80;;;;;;;19.17;100.00;100022.41;5097801;28;20064;-65
2023/07/25 00:21:05;;;;;;;5.50;2.92;;;;;;;18.77;100.00;100034.44;5116472;28;20384;-65
2023/07/25 00:23:33;;;;;;;6.18;3.15;;;;;;;18.97;100.00;100032.22;5113358;28;20056;-64
2023/07/25 00:26:00;;;;;;;7.07;2.80;;;;;;;18.69;100.00;100041.13;5090272;28;20802;-65
2023/07/25 00:28:27;;;;;;;11.50;3.40;;;;;;;18.72;98.79;100040.38;5098720;28;20054;-64
2023/07/25 00:30:55;;;;;;;8.73;3.08;;;;;;;18.63;98.81;100039.91;5117473;28;20054;-65
2023/07/25 00:33:22;;;;;;;9.30;3.50;;;;;;;18.63;98.77;100039.91;5097936;28;20063;-65
2023/07/25 00:35:53;;;;;;;8.93;3.80;;;;;;;18.47;99.94;100038.50;5098855;28;20047;-65
2023/07/25 00:38:20;;;;;;;9.73;3.90;;;;;;;18.55;100.00;100040.22;5116823;28;20500;-65
2023/07/25 00:40:48;;;;;;;11.35;4.43;;;;;;;18.41;100.00;100026.91;5117357;28;20043;-64
2023/07/25 00:43:16;;;;;;;8.35;3.58;;;;;;;18.40;100.00;100021.69;5117125;28;20524;-65
2023/07/25 00:45:43;;;;;;;10.80;3.80;;;;;;;18.28;100.00;100017.19;5098579;28;20063;-65
2023/07/25 00:48:12;;;;;;;15.07;3.70;;;;;;;18.32;100.00;100018.03;5116376;28;20036;-65
2023/07/25 00:50:39;;;;;;;10.98;4.15;;;;;;;18.36;100.00;100010.47;5116656;28;20545;-65
2023/07/25 00:53:09;;;;;;;8.68;3.65;;;;;;;18.42;100.00;100008.19;5098534;28;20066;-64
2023/07/25 00:55:37;;;;;;;7.57;3.28;;;;;;;18.36;100.00;100013.28;5088936;28;20063;-65
2023/07/25 00:58:04;;;;;;;7.35;3.55;;;;;;;18.34;100.00;100015.63;5096590;28;20452;-65
2023/07/25 01:00:32;;;;;;;8.88;3.25;;;;;;;18.43;100.00;100007.03;5096645;28;20581;-64
2023/07/25 01:02:59;;;;;;;7.78;3.30;;;;;;;18.56;100.00;100008.34;5096726;28;20048;-65
2023/07/25 01:05:27;;;;;;;7.00;3.13;;;;;;;18.50;100.00;100007.88;5107758;28;20074;-65
2023/07/25 01:07:55;;;;;;;9.10;3.45;;;;;;;18.42;100.00;100009.00;5097872;28;20471;-67
2023/07/25 01:10:22;;;;;;;8.95;3.33;;;;;;;18.53;100.00;100009.09;5116582;28;20412;-63
2023/07/25 01:12:50;;;;;;;6.93;3.08;;;;;;;18.64;100.00;100008.00;5116903;28;20047;-65
2023/07/25 01:15:17;;;;;;;6.30;3.42;;;;;;;18.46;100.00;100003.47;5115860;28;20442;-66
2023/07/25 01:17:45;;;;;;;7.15;3.42;;;;;;;18.12;100.00;99999.06;5116534;28;20070;-64
2023/07/25 01:20:12;;;;;;;6.93;3.40;;;;;;;18.07;100.00;100005.78;5089690;28;20052;-65
2023/07/25 01:22:42;;;;;;;6.90;4.00;;;;;;;18.04;100.00;99995.41;5110224;28;20066;-66
2023/07/25 01:25:09;;;;;;;8.27;3.42;;;;;;;18.05;100.00;99996.19;5077831;28;20047;-65
2023/07/25 01:27:37;;;;;;;10.68;4.10;;;;;;;18.23;100.00;99997.19;5098439;28;20047;-65
2023/07/25 01:30:05;;;;;;;9.63;3.85;;;;;;;18.30;100.00;99997.28;5098209;28;20054;-65
2023/07/25 01:32:32;;;;;;;9.57;3.97;;;;;;;18.25;100.00;99990.06;5114934;28;20059;-64
2023/07/25 01:34:59;;;;;;;9.38;4.25;;;;;;;18.25;100.00;99987.28;5094927;28;20082;-64
2023/07/25 01:37:27;;;;;;;6.50;3.40;;;;;;;18.47;100.00;99983.56;5097755;28;20062;-65
2023/07/25 01:39:54;;;;;;;6.63;3.40;;;;;;;18.68;100.00;99978.16;5115578;28;20081;-66
2023/07/25 01:42:22;;;;;;;8.35;3.80;;;;;;;18.60;100.00;99975.72;5115736;28;20062;-64
2023/07/25 01:44:49;;;;;;;7.28;3.70;;;;;;;18.63;100.00;99983.28;5115989;28;20051;-64
2023/07/25 01:47:18;;;;;;;6.35;3.58;;;;;;;18.77;100.00;99980.63;5097676;28;20047;-65
2023/07/25 01:49:45;;;;;;;9.15;3.85;;;;;;;18.69;100.00;99978.97;5096630;28;20058;-63
2023/07/25 01:52:12;;;;;;;11.40;4.15;;;;;;;18.75;100.00;99977.41;5114623;28;20062;-64
2023/07/25 01:54:40;;;;;;;6.18;3.78;;;;;;;18.72;100.00;99989.34;5097272;28;20051;-64
2023/07/25 01:57:07;;;;;;;8.15;3.83;;;;;;;18.76;100.00;99985.41;5116103;28;20062;-64
2023/07/25 01:59:35;;;;;;;7.38;3.72;;;;;;;18.80;100.00;99983.44;5114983;28;20047;-64
2023/07/25 02:02:02;;;;;;;7.43;3.15;;;;;;;18.71;100.00;99968.22;5096573;28;20056;-64
2023/07/25 02:04:30;;;;;;;7.32;3.60;;;;;;;18.67;100.00;99972.97;5115715;28;20047;-64
2023/07/25 02:06:57;;;;;;;6.18;3.28;;;;;;;18.78;100.00;99971.06;5096960;28;20487;-65
2023/07/25 02:09:24;;;;;;;9.18;3.63;;;;;;;18.63;100.00;99974.94;5076665;28;20048;-65
2023/07/25 02:11:52;;;;;;;10.98;4.30;;;;;;;18.33;100.00;99972.22;5085780;28;20077;-65
2023/07/25 02:14:19;;;;;;;6.95;4.30;;;;;;;18.33;99.96;99971.41;5090208;28;20491;-64
2023/07/25 02:16:46;;;;;;;7.35;4.10;;;;;;;18.14;100.00;99971.63;5114536;28;20052;-64
2023/07/25 02:19:14;;;;;;;9.15;4.60;;;;;;;18.18;100.00;99967.69;5114116;28;20039;-64
2023/07/25 02:21:41;;;;;;;12.15;5.10;;;;;;;17.78;100.00;99962.06;5104479;28;20047;-64
2023/07/25 02:24:08;;;;;;;12.82;4.80;;;;;;;17.99;100.00;99957.53;5095626;28;20058;-63
2023/07/25 02:26:38;;;;;;;8.63;4.15;;;;;;;18.23;100.00;99947.84;5095899;28;20059;-64
2023/07/25 02:29:05;;;;;;;9.52;4.72;;;;;;;18.29;100.00;99953.88;5114484;28;20040;-64
2023/07/25 02:31:32;;;;;;;8.90;5.47;;;;;;;18.16;100.00;99949.75;5095873;28;20526;-64
2023/07/25 02:34:01;;;;;;;7.90;4.95;;;;;;;17.97;100.00;99947.94;5122164;27;20039;-65
2023/07/25 02:36:28;;;;;;;10.85;5.70;;;;;;;17.82;100.00;99949.75;5134638;27;20065;-65
2023/07/25 02:38:56;;;;;;;9.45;4.82;;;;;;;18.20;100.00;99947.78;5135286;27;20051;-65
2023/07/25 02:41:24;;;;;;;10.52;5.40;;;;;;;17.72;100.00;99941.28;5108102;28;20052;-65
2023/07/25 02:43:52;;;;;;;12.32;6.00;;;;;;;17.58;100.00;99953.06;5114613;28;20055;-65
2023/07/25 02:46:19;;;;;;;8.30;5.20;;;;;;;17.49;100.00;99949.75;5114174;28;20055;-65
2023/07/25 02:48:47;;;;;;;12.00;5.60;;;;;;;17.38;100.00;99956.34;5123634;27;20052;-64
2023/07/25 02:51:14;;;;;;;12.52;6.00;;;;;;;17.27;100.00;99947.03;5134798;27;20039;-64
2023/07/25 02:53:41;;;;;;;10.68;6.43;;;;;;;17.24;100.00;99948.59;5092967;28;20048;-65
2023/07/25 02:56:09;;;;;;;12.48;5.70;;;;;;;17.33;100.00;99942.75;5092304;28;20063;-65
2023/07/25 02:58:36;;;;;;;10.23;5.50;;;;;;;17.32;100.00;99944.72;5094288;28;20052;-64
2023/07/25 03:01:04;;;;;;;12.32;5.82;;;;;;;17.54;100.00;99943.84;5085082;28;20139;-65
2023/07/25 03:03:31;;;;;;;9.60;5.32;;;;;;;17.69;100.00;99947.63;5093779;28;20550;-65
2023/07/25 03:05:58;;;;;;;10.85;5.65;;;;;;;17.48;100.00;99941.78;5092187;28;20060;-64
2023/07/25 03:08:26;;;;;;;12.57;5.68;;;;;;;17.64;100.00;99945.19;5075657;28;20048;-65
2023/07/25 03:10:53;;;;;;;10.95;5.60;;;;;;;17.57;100.00;99950.66;5104225;28;20478;-65
2023/07/25 03:13:20;;;;;;;15.27;5.97;;;;;;;17.65;100.00;99949.56;5109734;28;20049;-63
2023/07/25 03:15:48;;;;;;;9.07;5.20;;;;;;;17.89;100.00;99946.25;5111933;28;20047;-64
2023/07/25 03:18:15;;;;;;;9.85;5.30;;;;;;;17.92;100.00;99951.88;5092799;28;20047;-65
2023/07/25 03:20:43;;;;;;;12.82;6.15;;;;;;;17.91;100.00;99955.03;5110585;27;20062;-65
2023/07/25 03:23:10;;;;;;;11.68;5.63;;;;;;;17.56;100.00;99960.16;5095476;28;20058;-65
2023/07/25 03:25:37;;;;;;;10.70;5.25;;;;;;;17.59;100.00;99951.88;5113040;28;20047;-65
2023/07/25 03:28:05;;;;;;;12.85;4.97;;;;;;;17.65;100.00;99955.94;5079021;28;20047;-64
2023/07/25 03:30:32;;;;;;;11.30;5.28;;;;;;;17.38;100.00;99962.69;5095912;28;20042;-67
2023/07/25 03:32:59;;;;;;;9.55;5.13;;;;;;;17.33;100.00;99962.25;5110095;28;20622;-65
2023/07/25 03:35:27;;;;;;;13.02;5.03;;;;;;;17.14;100.00;99963.16;5088017;28;20051;-63
2023/07/25 03:37:54;;;;;;;9.60;4.63;;;;;;;17.36;100.00;99964.25;5085556;28;20062;-65
2023/07/25 03:40:21;;;;;;;7.47;4.10;;;;;;;17.54;100.00;99963.34;5112686;28;20066;-65
2023/07/25 03:42:49;;;;;;;9.05;3.90;;;;;;;17.57;100.00;99964.56;5079114;28;20375;-65
2023/07/25 03:45:16;;;;;;;10.18;4.45;;;;;;;17.76;100.00;99967.22;5113102;28;20043;-65
2023/07/25 03:47:43;;;;;;;9.55;4.95;;;;;;;17.54;100.00;99970.91;5112524;28;20557;-64
2023/07/25 03:50:12;;;;;;;10.75;4.47;;;;;;;17.72;100.00;99974.72;5111669;28;20043;-64
2023/07/25 03:52:39;;;;;;;10.30;4.90;;;;;;;17.61;100.00;99979.31;5112633;28;20059;-65
2023/07/25 03:55:07;;;;;;;9.55;4.80;;;;;;;17.24;100.00;99989.53;5112991;28;20043;-64
2023/07/25 03:57:34;;;;;;;11.15;5.35;;;;;;;16.96;100.00;99998.25;5113193;28;20067;-65
2023/07/25 04:00:02;;;;;;;10.73;5.10;;;;;;;16.89;100.00;100001.72;5095044;28;20059;-65
2023/07/25 04:02:37;;;;;;;10.38;5.22;;;;;;;16.63;100.00;100009.22;5113800;28;20051;-65
2023/07/25 04:05:07;;;;;;;9.93;5.47;;;;;;;16.75;100.00;100000.69;5093098;28;20501;-64
2023/07/25 04:07:34;;;;;;;9.43;5.00;;;;;;;16.73;100.00;100012.19;5113732;28;20048;-64
2023/07/25 04:10:02;;;;;;;10.43;4.85;;;;;;;16.55;100.00;100002.72;5113200;28;20525;-64
2023/07/25 04:12:30;;;;;;;8.93;4.47;;;;;;;16.56;100.00;100004.31;5076581;28;20367;-65
2023/07/25 04:14:58;;;;;;;8.48;4.70;;;;;;;16.92;100.00;100004.94;5110881;28;20047;-64
2023/07/25 04:17:25;;;;;;;7.88;4.53;;;;;;;17.01;100.00;100008.25;5112402;28;20656;-64
2023/07/25 04:19:52;;;;;;;8.45;4.97;;;;;;;16.99;100.00;100011.41;5093248;28;20043;-65
2023/07/25 04:22:21;;;;;;;9.07;5.32;;;;;;;16.97;100.00;100010.16;5086845;28;20521;-64
2023/07/25 04:24:49;;;;;;;9.00;5.07;;;;;;;16.96;100.00;100006.59;5082730;28;20043;-65
2023/07/25 04:27:16;;;;;;;12.52;5.38;;;;;;;17.04;100.00;100011.09;5110587;28;20632;-64
2023/07/25 04:29:43;;;;;;;10.23;4.95;;;;;;;17.00;100.00;100009.44;5074908;28;20352;-64
2023/07/25 04:32:11;;;;;;;11.10;5.15;;;;;;;16.89;100.00;100018.41;5102662;28;20047;-65
2023/07/25 04:34:38;;;;;;;8.27;4.75;;;;;;;16.80;100.00;100011.50;5112010;28;20631;-64
2023/07/25 04:37:05;;;;;;;10.80;5.55;;;;;;;16.50;100.00;100011.38;5093982;28;20050;-63
2023/07/25 04:39:33;;;;;;;9.77;5.03;;;;;;;16.61;100.00;100014.34;5111583;28;20066;-66
2023/07/25 04:42:00;;;;;;;10.80;5.55;;;;;;;16.65;100.00;100013.22;5113083;28;20040;-64
2023/07/25 04:44:27;;;;;;;10.40;5.10;;;;;;;16.54;100.00;100015.03;5113174;28;20066;-65
2023/07/25 04:46:54;;;;;;;8.73;4.65;;;;;;;16.53;100.00;100018.16;5092788;28;20056;-65
2023/07/25 04:49:22;;;;;;;8.73;4.80;;;;;;;16.53;100.00;100027.31;5050368;28;20073;-65
2023/07/25 04:51:49;;;;;;;8.65;4.85;;;;;;;16.62;100.00;100022.31;5074002;28;20200;-65
2023/07/25 04:54:17;;;;;;;8.88;5.22;;;;;;;16.68;100.00;100028.38;5111874;28;20052;-65
2023/07/25 04:56:44;;;;;;;7.55;5.28;;;;;;;16.63;100.00;100028.69;5077518;28;20051;-61
2023/07/25 04:59:11;;;;;;;10.38;5.20;;;;;;;16.52;100.00;100042.41;5094891;28;20047;-61
2023/07/25 05:01:39;;;;;;;10.73;5.68;;;;;;;16.82;100.00;100039.75;5115929;28;20055;-62
2023/07/25 05:04:09;;;;;;;10.07;6.07;;;;;;;16.78;100.00;100036.09;5116820;28;20044;-64
2023/07/25 05:06:37;;;;;;;10.43;6.03;;;;;;;16.67;100.00;100035.09;5097662;28;20063;-64
2023/07/25 05:09:04;;;;;;;10.05;6.28;;;;;;;16.45;100.00;100045.00;5114986;28;20070;-66
2023/07/25 05:11:31;;;;;;;9.13;5.88;;;;;;;16.42;100.00;100042.94;5115943;28;20066;-65
2023/07/25 05:14:00;;;;;;;11.02;6.65;;;;;;;16.50;100.00;100041.16;5103538;28;20051;-65
2023/07/25 05:16:27;;;;;;;11.02;6.22;;;;;;;16.61;100.00;100040.19;5081377;28;20056;-63
2023/07/25 05:18:54;;;;;;;14.52;6.20;;;;;;;16.53;100.00;100040.41;5088454;28;20050;-64
2023/07/25 05:21:22;;;;;;;10.77;5.78;;;;;;;16.63;100.00;100042.59;5069546;28;20055;-66
2023/07/25 05:23:49;;;;;;;10.45;5.55;;;;;;;16.84;100.00;100042.97;5052658;28;20043;-64
2023/07/25 05:26:16;;;;;;;8.40;4.95;;;;;;;16.60;100.00;100043.31;5097743;28;20048;-65
2023/07/25 05:28:44;;;;;;;9.73;5.55;;;;;;;16.74;100.00;100040.78;5081833;28;20051;-65
2023/07/25 05:31:11;;;;;;;8.38;5.22;;;;;;;16.79;100.00;100048.81;5097963;28;20047;-65
2023/07/25 05:33:38;;;;;;;8.85;4.75;;;;;;;16.53;100.00;100052.34;5114785;28;20051;-64
2023/07/25 05:36:06;;;;;;;10.00;5.45;;;;;;;16.60;100.00;100051.66;5112476;28;20051;-66
2023/07/25 05:38:33;;;;;;;8.48;5.32;;;;;;;16.77;100.00;100046.41;5114254;28;20055;-64
2023/07/25 05:41:02;;;;;;;9.45;5.97;;;;;;;16.53;100.00;100052.34;5094933;28;20040;-65
2023/07/25 05:43:29;;;;;;;8.93;5.82;;;;;;;16.59;100.00;100050.06;5116217;28;20443;-64
2023/07/25 05:45:56;;;;;;;10.88;5.82;;;;;;;16.82;100.00;100048.09;5080697;28;20043;-65
2023/07/25 05:48:24;;;;;;;9.95;6.40;;;;;;;16.89;100.00;100054.56;5093016;28;20055;-65
2023/07/25 05:50:54;;;;;;;9.07;5.45;;;;;;;16.66;100.00;100066.88;5032669;27;20077;-65
2023/07/25 05:53:25;;;;;;;8.48;5.57;;;;;;;16.59;100.00;100066.75;5032449;28;20158;-61
2023/07/25 05:55:52;;;;;;;9.73;5.47;;;;;;;16.61;100.00;100069.97;5095421;28;20051;-62
2023/07/25 05:58:19;;;;;;;9.60;5.90;;;;;;;16.72;100.00;100071.75;5107226;28;20059;-65
2023/07/25 06:00:47;;;;;;;11.35;5.88;;;;;;;16.63;100.00;100076.75;5116046;28;20044;-64
2023/07/25 06:03:16;;;;;;;8.80;5.47;;;;;;;16.87;100.00;100078.38;5097246;28;20058;-61
2023/07/25 06:05:43;;;;;;;10.05;5.82;;;;;;;16.85;100.00;100084.31;5095905;28;20035;-60
2023/07/25 06:08:11;;;;;;;10.25;6.00;;;;;;;16.73;100.00;100078.94;5113741;28;20074;-62
2023/07/25 06:10:39;;;;;;;12.85;7.10;;;;;;;16.72;100.00;100087.63;5114380;28;20047;-61
2023/07/25 06:13:06;;;;;;;10.57;6.97;;;;;;;16.54;100.00;100090.09;5093398;28;20046;-64
2023/07/25 06:15:34;;;;;;;10.20;7.20;;;;;;;16.63;100.00;100093.44;5053197;28;20059;-64
2023/07/25 06:18:03;;;;;;;10.93;7.22;;;;;;;16.69;100.00;100097.53;5115973;28;20423;-65
2023/07/25 06:20:32;;;;;;;10.15;6.75;;;;;;;16.62;100.00;100100.19;5096037;28;20048;-65
2023/07/25 06:23:00;;;;;;;10.60;6.97;;;;;;;16.53;100.00;100107.94;5114926;28;20050;-64
2023/07/25 06:25:28;;;;;;;10.15;6.63;;;;;;;16.54;100.00;100104.00;5114671;28;20066;-65
2023/07/25 06:27:56;;;;;;;10.80;6.65;;;;;;;16.67;100.00;100107.41;5097105;28;20295;-65
2023/07/25 06:30:23;;;;;;;15.82;6.43;;;;;;;16.53;100.00;100112.69;5096634;28;20043;-64
2023/07/25 06:32:50;;;;;;;9.98;5.90;;;;;;;16.68;100.00;100107.03;5102141;28;20051;-64
2023/07/25 06:35:22;;;;;;;10.73;6.53;;;;;;;16.73;100.00;100105.94;5097995;28;20059;-65
2023/07/25 06:37:49;;;;;;;12.98;7.40;;;;;;;16.85;100.00;100109.34;5114706;28;20613;-62
2023/07/25 06:40:17;;;;;;;11.73;6.65;;;;;;;16.66;100.00;100106.63;5095236;28;20054;-62
2023/07/25 06:42:44;;;;;;;10.68;6.75;;;;;;;16.98;100.00;100104.38;5114986;28;20384;-61
2023/07/25 06:45:13;;;;;;;9.80;6.47;;;;;;;17.27;100.00;100112.06;5096506;28;20044;-62
2023/07/25 06:47:40;;;;;;;11.07;6.03;;;;;;;16.79;100.00;100112.78;5095787;28;20055;-60
2023/07/25 06:50:08;;;;;;;10.30;6.30;;;;;;;16.72;100.00;100121.00;5083743;28;20039;-60
2023/07/25 06:52:36;;;;;;;13.60;6.80;;;;;;;16.80;100.00;100129.13;5107446;28;20051;-61
2023/07/25 06:55:03;;;;;;;14.13;9.00;;;;;;;16.78;100.00;100127.88;5072923;28;20044;-61
2023/07/25 06:57:31;;;;;;;14.43;11.10;;;;;;;16.50;100.00;100144.81;5107606;28;20051;-62
2023/07/25 06:59:58;;;;;;;15.90;11.57;;;;;;;16.25;100.00;100149.03;5087078;28;20044;-62
2023/07/25 07:02:26;;;;;;;16.42;11.80;;;;;;;16.21;100.00;100152.91;5110581;28;20047;-61
2023/07/25 07:04:53;;;;;;;15.38;11.02;;;;;;;16.13;100.00;100159.47;5080277;28;20051;-61
2023/07/25 07:07:21;;;;;;;19.88;13.25;;;;;;;16.06;100.00;100164.88;5097882;28;20048;-62
2023/07/25 07:09:48;;;;;;;19.75;13.18;;;;;;;15.88;100.00;100167.28;5107783;27;20036;-61
2023/07/25 07:12:16;;;;;;;23.85;14.55;;;;;;;15.65;100.00;100180.19;5105680;28;20150;-61
2023/07/25 07:14:44;;;;;;;23.27;14.48;;;;;;;15.70;100.00;100171.59;5083253;27;20058;-61
2023/07/25 07:17:11;;;;;;;22.58;13.25;;;;;;;15.82;100.00;100182.59;5105564;28;20052;-60
2023/07/25 07:19:38;;;;;;;17.08;11.75;;;;;;;15.89;100.00;100182.75;5092464;28;20048;-61
2023/07/25 07:22:06;;;;;;;16.50;12.02;;;;;;;15.84;100.00;100199.69;5086672;28;20053;-61
2023/07/25 07:24:33;;;;;;;15.07;11.05;;;;;;;15.64;100.00;100209.13;5100859;28;20054;-61
2023/07/25 07:27:00;;;;;;;12.50;9.10;;;;;;;15.47;100.00;100215.03;5112194;27;20052;-63
2023/07/25 07:29:28;;;;;;;10.35;7.47;;;;;;;15.46;100.00;100208.66;5076522;28;20052;-61
2023/07/25 07:31:59;;;;;;;12.80;7.43;;;;;;;15.51;100.00;100219.53;5103758;28;20051;-60
2023/07/25 07:34:28;;;;;;;9.15;7.25;;;;;;;15.21;100.00;100218.31;5107735;28;20070;-62
2023/07/25 07:36:55;;;;;;;14.50;6.68;;;;;;;15.34;100.00;100224.59;5107676;28;20499;-60
2023/07/25 07:39:22;;;;;;;15.82;7.25;;;;;;;15.57;100.00;100236.69;5103844;28;20055;-62
2023/07/25 07:41:50;;;;;;;12.73;5.75;;;;;;;15.27;100.00;100235.50;5090578;28;20379;-58
2023/07/25 07:44:17;;;;;;;14.23;6.15;;;;;;;15.31;100.00;100251.06;5101238;28;20048;-60
2023/07/25 07:46:44;;;;;;;11.90;5.30;;;;;;;15.02;100.00;100243.16;5104002;28;20048;-60
2023/07/25 07:49:12;;;;;;;8.13;4.95;;;;;;;14.95;100.00;100258.78;5089108;28;20351;-58
2023/07/25 07:51:39;;;;;;;9.05;4.47;;;;;;;14.85;100.00;100259.28;5090034;28;20043;-60
2023/07/25 07:54:06;;;;;;;12.07;4.80;;;;;;;14.75;100.00;100259.81;5106906;28;20043;-59
2023/07/25 07:56:34;;;;;;;11.63;4.25;;;;;;;14.82;100.00;100262.78;5106686;28;20051;-58
2023/07/25 07:59:01;;;;;;;8.43;3.78;;;;;;;14.81;100.00;100270.28;5087292;28;20067;-60
2023/07/25 08:01:29;;;;;;;7.22;3.58;;;;;;;14.96;100.00;100272.28;5088669;28;20071;-58
2023/07/25 08:03:57;;;;;;;8.50;3.67;;;;;;;14.96;100.00;100277.06;5105319;28;20828;-61
2023/07/25 08:06:24;;;;;;;8.23;3.10;;;;;;;15.15;100.00;100285.53;5085067;28;20074;-57
2023/07/25 08:08:52;;;;;;;8.20;2.75;;;;;;;15.14;99.29;100279.16;5089921;28;20051;-57
2023/07/25 08:11:19;;;;;;;7.60;2.72;;;;;;;14.86;98.13;100289.44;5106220;28;20047;-59
2023/07/25 08:13:46;;;;;;;4.53;2.10;;;;;;;14.70;99.69;100282.22;5089035;28;20051;-60
2023/07/25 08:16:14;;;;;;;9.40;2.72;;;;;;;14.98;99.97;100292.16;5106041;28;20054;-60
2023/07/25 08:18:41;;;;;;;8.27;2.58;;;;;;;15.08;97.35;100297.19;5085448;28;20047;-58
2023/07/25 08:21:08;;;;;;;6.35;1.88;;;;;;;14.84;96.29;100294.53;5102680;28;20115;-59
2023/07/25 08:23:36;;;;;;;4.15;1.58;;;;;;;14.71;95.51;100298.50;5103084;28;20049;-60
2023/07/25 08:26:03;;;;;;;5.18;2.00;;;;;;;14.94;95.87;100307.09;5107644;28;20040;-61
2023/07/25 08:28:30;;;;;;;9.82;2.15;;;;;;;15.09;94.62;100311.88;5098610;28;20059;-60
2023/07/25 08:31:02;;;;;;;4.32;2.15;;;;;;;14.63;95.02;100311.34;5097785;28;20046;-59
2023/07/25 08:33:34;;;;;;;9.45;2.28;;;;;;;15.00;95.52;100312.03;5103217;28;20048;-59
2023/07/25 08:36:02;;;;;;;5.63;1.80;;;;;;;15.32;93.62;100324.84;5111048;28;20047;-59
2023/07/25 08:38:30;;;;;;;6.13;2.55;;;;;;;15.39;91.90;100313.94;5108899;28;20043;-60
2023/07/25 08:41:05;;;;;;;5.70;2.10;;;;;;;15.46;91.07;100325.25;5085956;28;20550;-60
2023/07/25 08:43:39;;;;;;;9.10;2.20;;;;;;;15.46;90.32;100332.78;5100112;28;20051;-61
2023/07/25 08:46:08;;;;;;;5.28;2.33;;;;;;;15.34;89.92;100339.16;5104873;28;20043;-60
2023/07/25 08:48:41;;;;;;;9.47;2.20;;;;;;;15.59;88.53;100334.31;5107284;28;20764;-59
2023/07/25 08:51:20;;;;;;;6.93;2.35;;;;;;;15.54;88.75;100352.06;5087787;28;20040;-60
2023/07/25 08:53:56;;;;;;;8.40;2.58;;;;;;;15.27;88.37;100363.94;5107049;28;20051;-59
2023/07/25 08:56:24;;;;;;;7.75;2.08;;;;;;;15.55;87.87;100370.31;5104963;28;20052;-60
2023/07/25 08:58:52;;;;;;;10.60;2.28;;;;;;;15.41;85.74;100383.00;5087909;28;20060;-59
2023/07/25 09:01:20;;;;;;;4.80;2.10;;;;;;;15.03;86.73;100383.44;5086638;28;20048;-60
2023/07/25 09:03:48;;;;;;;10.70;2.15;;;;;;;15.11;86.39;100388.06;5088239;28;20051;-60
2023/07/25 09:06:16;;;;;;;9.75;2.05;;;;;;;15.22;86.85;100386.38;5108063;28;20055;-58
2023/07/25 09:08:43;;;;;;;9.18;2.40;;;;;;;15.26;86.84;100387.31;5111058;28;20388;-59
2023/07/25 09:11:11;;;;;;;5.13;2.20;;;;;;;15.46;85.61;100391.06;5112017;28;20050;-61
2023/07/25 09:13:39;;;;;;;7.55;2.40;;;;;;;15.30;86.09;100399.31;5107467;28;20048;-59
2023/07/25 09:16:06;;;;;;;8.07;2.33;;;;;;;15.46;86.84;100408.53;5109282;28;20055;-59
2023/07/25 09:18:34;;;;;;;8.82;2.40;;;;;;;15.75;85.97;100399.84;5094299;28;20052;-60
2023/07/25 09:21:02;;;;;;;7.55;2.10;;;;;;;15.33;86.79;100409.72;5109225;28;20046;-60
2023/07/25 09:23:29;;;;;;;6.35;2.10;;;;;;;15.11;86.65;100418.56;5106222;27;20058;-59
2023/07/25 09:26:10;;;;;;;7.82;2.20;;;;;;;15.14;85.71;100428.16;5097498;28;20062;-58
2023/07/25 09:28:48;;;;;;;9.07;2.80;;;;;;;15.26;87.05;100426.16;5107096;28;20055;-59
2023/07/25 09:31:17;;;;;;;8.52;2.33;;;;;;;15.59;87.01;100434.25;5088026;28;20056;-59
2023/07/25 09:33:48;;;;;;;11.55;3.20;;;;;;;16.02;86.05;100444.59;5107587;28;20038;-61
2023/07/25 09:36:15;;;;;;;8.38;2.35;;;;;;;15.50;85.67;100445.53;5109380;28;20047;-61
2023/07/25 09:38:50;;;;;;;5.47;2.88;;;;;;;15.57;86.81;100442.13;5108264;28;20051;-58
2023/07/25 09:41:19;;;;;;;10.65;2.92;;;;;;;15.62;87.10;100451.03;5108195;28;20047;-60
2023/07/25 09:43:46;;;;;;;6.50;2.72;;;;;;;15.80;86.25;100457.09;5107816;28;20685;-59
2023/07/25 09:46:14;;;;;;;9.88;2.80;;;;;;;15.98;86.58;100457.56;5086547;28;20048;-58
2023/07/25 09:48:51;;;;;;;9.23;3.28;;;;;;;15.86;84.71;100457.63;5092733;28;20047;-61
2023/07/25 09:51:19;;;;;;;8.57;3.30;;;;;;;16.07;84.57;100455.44;5087333;28;20958;-60
2023/07/25 09:53:54;;;;;;;9.75;3.40;;;;;;;15.78;86.35;100464.97;5109194;28;20051;-60
2023/07/25 09:56:25;;;;;;;8.10;3.85;;;;;;;15.37;88.77;100471.69;5104468;28;20055;-60
2023/07/25 09:58:54;;;;;;;12.50;4.05;;;;;;;15.65;89.45;100480.06;5104810;28;20450;-61
2023/07/25 10:01:25;;;;;;;9.35;3.55;;;;;;;15.96;88.19;100482.94;5104059;28;20070;-60
2023/07/25 10:03:53;;;;;;;9.55;3.50;;;;;;;15.92;87.73;100475.69;5087784;28;20054;-60
2023/07/25 10:06:21;;;;;;;10.10;3.97;;;;;;;16.13;86.44;100470.69;5088755;28;20517;-62
2023/07/25 10:08:49;;;;;;;8.40;3.67;;;;;;;16.33;84.64;100480.75;5088552;28;20054;-61
2023/07/25 10:11:17;;;;;;;9.77;3.83;;;;;;;16.59;83.43;100478.28;5088170;28;20044;-61
2023/07/25 10:13:44;;;;;;;8.68;3.80;;;;;;;16.39;83.61;100482.91;5085193;28;20523;-60
2023/07/25 10:16:14;;;;;;;6.97;3.67;;;;;;;16.22;83.42;100486.03;5086864;28;20036;-61
2023/07/25 10:18:42;;;;;;;9.55;3.60;;;;;;;15.97;83.57;100476.19;5056790;28;21782;-61
2023/07/25 10:21:11;;;;;;;8.45;3.20;;;;;;;16.44;80.32;100477.06;5108520;28;20039;-61
2023/07/25 10:23:39;;;;;;;14.00;3.40;;;;;;;16.69;78.77;100472.97;5100549;28;20040;-61
2023/07/25 10:26:11;;;;;;;10.98;3.72;;;;;;;16.73;78.26;100470.28;5102315;28;20043;-61
2023/07/25 10:28:42;;;;;;;10.43;3.95;;;;;;;16.63;76.71;100479.97;5108467;28;20058;-63
2023/07/25 10:31:24;;;;;;;9.07;4.22;;;;;;;16.49;77.92;100476.84;5089966;28;20055;-63
2023/07/25 10:34:18;;;;;;;7.60;4.15;;;;;;;16.67;77.15;100475.31;5102971;28;20422;-65
2023/07/25 10:36:46;;;;;;;9.63;4.97;;;;;;;16.90;75.87;100469.91;5086452;28;20051;-58
2023/07/25 10:39:24;;;;;;;8.45;4.47;;;;;;;17.00;76.19;100477.69;5097208;28;20055;-57
2023/07/25 10:41:53;;;;;;;8.93;4.53;;;;;;;17.09;75.60;100469.13;5099685;28;20043;-59
2023/07/25 10:44:50;;;;;;;10.23;4.30;;;;;;;17.30;73.65;100470.44;5096480;28;20063;-59
2023/07/25 10:47:48;;;;;;;10.13;4.25;;;;;;;17.61;73.32;100467.56;5080237;28;20059;-59
2023/07/25 10:50:20;;;;;;;8.43;4.53;;;;;;;17.95;70.35;100471.44;5103030;28;20053;-60
2023/07/25 10:52:47;;;;;;;11.82;5.40;;;;;;;17.96;68.79;100470.25;5102817;28;20039;-58
2023/07/25 10:55:15;;;;;;;10.55;4.65;;;;;;;17.70;70.06;100495.19;5085408;28;20063;-60
2023/07/25 10:58:08;;;;;;;10.20;4.35;;;;;;;17.63;69.57;100489.47;5089229;28;20052;-58
2023/07/25 11:00:37;;;;;;;11.60;4.18;;;;;;;17.69;69.31;100485.22;5101742;28;20039;-61
2023/07/25 11:03:27;;;;;;;9.73;4.45;;;;;;;17.58;70.57;100493.34;5098937;28;20051;-60
2023/07/25 11:06:06;;;;;;;10.97;4.83;;;;;;;17.73;70.64;100500.03;5099212;28;20070;-60
2023/07/25 11:08:39;;;;;;;9.82;4.35;;;;;;;17.93;69.79;100496.06;5108352;28;20305;-58
2023/07/25 11:11:09;;;;;;;9.07;4.82;;;;;;;17.81;69.02;100502.63;5087474;28;20450;-58
2023/07/25 11:13:38;;;;;;;10.38;4.57;;;;;;;17.90;69.51;100497.59;5089144;28;20039;-60
2023/07/25 11:16:09;;;;;;;7.03;3.63;;;;;;;17.56;69.07;100508.81;5107384;28;20714;-57
2023/07/25 11:18:48;;;;;;;8.63;3.60;;;;;;;17.88;68.88;100501.94;5085500;28;20040;-59
2023/07/25 11:21:16;;;;;;;7.95;4.05;;;;;;;17.92;67.91;100491.69;5103939;28;20509;-59
2023/07/25 11:23:43;;;;;;;10.80;3.25;;;;;;;17.89;66.50;100493.22;5105689;28;20050;-61